Schedule Details


Flight Number: CTN374
Departure: Franjo Tudman (LDZA) at 15:05
Arrival: El Prat (LEBL) at 17:30
Route: KOTOR UT742 NAKIT UL615 ROTAR L615 AKADO M196 LAGEN Q712 ENOBA Z185 BADBA UZ185 KOLON UM984 DIVKO UN975 BISBA

Weather Information
LDZA 100000Z 25005KT CAVOK 05/M00 Q1021 NOSIG
LEBL 100000Z 31006KT 9999 FEW030 11/05 Q1022 NOSIG
Schedule Frequency

Route Map